sensor_id;sensor_type;location;lat;lon;timestamp;P1;durP1;ratioP1;P2;durP2;ratioP2
77586;SDS011;66744;49.716;17.158;2023-07-29T00:00:22;4.40;;;3.20;;
77586;SDS011;66744;49.716;17.158;2023-07-29T00:03:25;4.72;;;3.45;;
77586;SDS011;66744;49.716;17.158;2023-07-29T00:06:26;4.25;;;3.72;;
77586;SDS011;66744;49.716;17.158;2023-07-29T00:09:28;5.32;;;2.30;;
77586;SDS011;66744;49.716;17.158;2023-07-29T00:12:29;4.43;;;2.90;;
77586;SDS011;66744;49.716;17.158;2023-07-29T00:15:33;6.50;;;3.03;;
77586;SDS011;66744;49.716;17.158;2023-07-29T00:18:35;7.18;;;3.60;;
77586;SDS011;66744;49.716;17.158;2023-07-29T00:21:37;4.97;;;3.13;;
77586;SDS011;66744;49.716;17.158;2023-07-29T00:24:42;4.55;;;2.95;;
77586;SDS011;66744;49.716;17.158;2023-07-29T00:27:45;3.17;;;2.80;;
77586;SDS011;66744;49.716;17.158;2023-07-29T00:30:47;3.78;;;3.03;;
77586;SDS011;66744;49.716;17.158;2023-07-29T00:33:48;3.47;;;2.97;;
77586;SDS011;66744;49.716;17.158;2023-07-29T00:36:50;5.60;;;2.97;;
77586;SDS011;66744;49.716;17.158;2023-07-29T00:39:51;3.83;;;3.22;;
77586;SDS011;66744;49.716;17.158;2023-07-29T00:42:53;6.47;;;3.15;;
77586;SDS011;66744;49.716;17.158;2023-07-29T00:45:54;4.38;;;3.60;;
77586;SDS011;66744;49.716;17.158;2023-07-29T00:48:58;5.55;;;3.33;;
77586;SDS011;66744;49.716;17.158;2023-07-29T00:51:59;6.18;;;3.45;;
77586;SDS011;66744;49.716;17.158;2023-07-29T00:55:03;9.48;;;4.05;;
77586;SDS011;66744;49.716;17.158;2023-07-29T00:58:06;6.50;;;3.05;;
77586;SDS011;66744;49.716;17.158;2023-07-29T01:01:08;5.75;;;3.55;;
77586;SDS011;66744;49.716;17.158;2023-07-29T01:04:09;5.93;;;3.47;;
77586;SDS011;66744;49.716;17.158;2023-07-29T01:07:14;6.28;;;3.50;;
77586;SDS011;66744;49.716;17.158;2023-07-29T01:10:30;4.57;;;3.15;;
77586;SDS011;66744;49.716;17.158;2023-07-29T01:13:49;9.40;;;3.65;;
77586;SDS011;66744;49.716;17.158;2023-07-29T01:17:00;5.50;;;3.50;;
77586;SDS011;66744;49.716;17.158;2023-07-29T01:20:07;4.60;;;3.42;;
77586;SDS011;66744;49.716;17.158;2023-07-29T01:23:09;5.32;;;3.83;;
77586;SDS011;66744;49.716;17.158;2023-07-29T01:26:11;4.32;;;3.50;;
77586;SDS011;66744;49.716;17.158;2023-07-29T01:29:12;5.18;;;3.10;;
77586;SDS011;66744;49.716;17.158;2023-07-29T01:32:14;5.57;;;3.08;;
77586;SDS011;66744;49.716;17.158;2023-07-29T01:38:31;5.07;;;2.75;;
77586;SDS011;66744;49.716;17.158;2023-07-29T01:41:39;3.88;;;2.47;;
77586;SDS011;66744;49.716;17.158;2023-07-29T01:44:45;9.90;;;3.45;;
77586;SDS011;66744;49.716;17.158;2023-07-29T01:47:49;4.95;;;3.47;;
77586;SDS011;66744;49.716;17.158;2023-07-29T01:50:50;5.00;;;3.03;;
77586;SDS011;66744;49.716;17.158;2023-07-29T01:53:52;4.07;;;2.88;;
77586;SDS011;66744;49.716;17.158;2023-07-29T01:56:53;6.28;;;3.10;;
77586;SDS011;66744;49.716;17.158;2023-07-29T01:59:55;5.43;;;3.55;;
77586;SDS011;66744;49.716;17.158;2023-07-29T02:03:05;5.28;;;3.08;;
77586;SDS011;66744;49.716;17.158;2023-07-29T02:06:07;4.72;;;3.47;;
77586;SDS011;66744;49.716;17.158;2023-07-29T02:09:08;6.30;;;3.90;;
77586;SDS011;66744;49.716;17.158;2023-07-29T02:12:10;3.55;;;2.47;;
77586;SDS011;66744;49.716;17.158;2023-07-29T02:15:14;3.63;;;3.15;;
77586;SDS011;66744;49.716;17.158;2023-07-29T02:18:16;8.85;;;3.10;;
77586;SDS011;66744;49.716;17.158;2023-07-29T02:21:17;6.93;;;2.53;;
77586;SDS011;66744;49.716;17.158;2023-07-29T02:24:18;8.05;;;3.40;;
77586;SDS011;66744;49.716;17.158;2023-07-29T02:27:20;11.68;;;3.80;;
77586;SDS011;66744;49.716;17.158;2023-07-29T02:30:22;3.22;;;2.60;;
77586;SDS011;66744;49.716;17.158;2023-07-29T02:33:23;4.78;;;3.30;;
77586;SDS011;66744;49.716;17.158;2023-07-29T02:36:25;6.50;;;2.20;;
77586;SDS011;66744;49.716;17.158;2023-07-29T02:39:26;6.72;;;2.22;;
77586;SDS011;66744;49.716;17.158;2023-07-29T02:42:28;7.20;;;2.90;;
77586;SDS011;66744;49.716;17.158;2023-07-29T02:45:31;2.92;;;2.50;;
77586;SDS011;66744;49.716;17.158;2023-07-29T02:48:32;4.55;;;2.88;;
77586;SDS011;66744;49.716;17.158;2023-07-29T02:51:34;8.07;;;3.30;;
77586;SDS011;66744;49.716;17.158;2023-07-29T02:54:36;4.50;;;3.25;;
77586;SDS011;66744;49.716;17.158;2023-07-29T02:57:38;5.38;;;2.75;;
77586;SDS011;66744;49.716;17.158;2023-07-29T03:00:39;8.57;;;2.83;;
77586;SDS011;66744;49.716;17.158;2023-07-29T03:03:44;7.32;;;3.20;;
77586;SDS011;66744;49.716;17.158;2023-07-29T03:06:46;8.32;;;2.92;;
77586;SDS011;66744;49.716;17.158;2023-07-29T03:09:49;6.50;;;3.70;;
77586;SDS011;66744;49.716;17.158;2023-07-29T03:12:53;7.47;;;3.15;;
77586;SDS011;66744;49.716;17.158;2023-07-29T03:16:04;5.90;;;3.45;;
77586;SDS011;66744;49.716;17.158;2023-07-29T03:19:08;5.82;;;3.42;;
77586;SDS011;66744;49.716;17.158;2023-07-29T03:22:10;6.50;;;3.63;;
77586;SDS011;66744;49.716;17.158;2023-07-29T03:25:11;6.68;;;2.90;;
77586;SDS011;66744;49.716;17.158;2023-07-29T03:28:13;5.07;;;3.33;;
77586;SDS011;66744;49.716;17.158;2023-07-29T03:31:17;7.38;;;3.28;;
77586;SDS011;66744;49.716;17.158;2023-07-29T03:34:20;9.30;;;3.13;;
77586;SDS011;66744;49.716;17.158;2023-07-29T03:37:22;6.03;;;3.17;;
77586;SDS011;66744;49.716;17.158;2023-07-29T03:40:24;3.88;;;2.92;;
77586;SDS011;66744;49.716;17.158;2023-07-29T03:43:25;8.68;;;2.80;;
77586;SDS011;66744;49.716;17.158;2023-07-29T03:46:30;4.97;;;3.22;;
77586;SDS011;66744;49.716;17.158;2023-07-29T03:49:32;11.35;;;3.63;;
77586;SDS011;66744;49.716;17.158;2023-07-29T03:52:34;10.82;;;3.42;;
77586;SDS011;66744;49.716;17.158;2023-07-29T03:55:36;3.85;;;2.92;;
77586;SDS011;66744;49.716;17.158;2023-07-29T03:58:37;14.23;;;3.35;;
77586;SDS011;66744;49.716;17.158;2023-07-29T04:01:38;9.27;;;3.30;;
77586;SDS011;66744;49.716;17.158;2023-07-29T04:04:43;6.95;;;2.70;;
77586;SDS011;66744;49.716;17.158;2023-07-29T04:07:48;6.60;;;3.63;;
77586;SDS011;66744;49.716;17.158;2023-07-29T04:10:50;7.97;;;2.58;;
77586;SDS011;66744;49.716;17.158;2023-07-29T04:13:51;9.13;;;3.55;;
77586;SDS011;66744;49.716;17.158;2023-07-29T04:16:52;9.20;;;3.25;;
77586;SDS011;66744;49.716;17.158;2023-07-29T04:19:54;10.85;;;3.38;;
77586;SDS011;66744;49.716;17.158;2023-07-29T04:23:01;7.15;;;3.08;;
77586;SDS011;66744;49.716;17.158;2023-07-29T04:26:03;3.45;;;3.08;;
77586;SDS011;66744;49.716;17.158;2023-07-29T04:29:04;4.97;;;3.58;;
77586;SDS011;66744;49.716;17.158;2023-07-29T04:32:19;4.65;;;3.28;;
77586;SDS011;66744;49.716;17.158;2023-07-29T04:35:23;5.13;;;3.30;;
77586;SDS011;66744;49.716;17.158;2023-07-29T04:38:29;4.70;;;3.30;;
77586;SDS011;66744;49.716;17.158;2023-07-29T04:41:33;5.68;;;4.47;;
77586;SDS011;66744;49.716;17.158;2023-07-29T04:44:35;6.78;;;4.13;;
77586;SDS011;66744;49.716;17.158;2023-07-29T04:47:37;5.15;;;4.50;;
77586;SDS011;66744;49.716;17.158;2023-07-29T04:50:38;4.70;;;4.15;;
77586;SDS011;66744;49.716;17.158;2023-07-29T04:53:42;4.95;;;3.70;;
77586;SDS011;66744;49.716;17.158;2023-07-29T04:56:43;7.05;;;3.67;;
77586;SDS011;66744;49.716;17.158;2023-07-29T04:59:44;4.15;;;2.92;;
77586;SDS011;66744;49.716;17.158;2023-07-29T05:02:46;4.90;;;3.80;;
77586;SDS011;66744;49.716;17.158;2023-07-29T05:05:47;10.13;;;4.80;;
77586;SDS011;66744;49.716;17.158;2023-07-29T05:08:50;5.32;;;3.78;;
77586;SDS011;66744;49.716;17.158;2023-07-29T05:11:51;4.43;;;3.00;;
77586;SDS011;66744;49.716;17.158;2023-07-29T05:14:53;7.63;;;4.70;;
77586;SDS011;66744;49.716;17.158;2023-07-29T05:17:54;8.25;;;4.30;;
77586;SDS011;66744;49.716;17.158;2023-07-29T05:20:56;9.35;;;4.55;;
77586;SDS011;66744;49.716;17.158;2023-07-29T05:23:57;6.88;;;4.75;;
77586;SDS011;66744;49.716;17.158;2023-07-29T05:26:59;7.15;;;4.88;;
77586;SDS011;66744;49.716;17.158;2023-07-29T05:30:08;6.53;;;4.13;;
77586;SDS011;66744;49.716;17.158;2023-07-29T05:33:10;5.40;;;4.85;;
77586;SDS011;66744;49.716;17.158;2023-07-29T05:36:14;5.35;;;4.57;;
77586;SDS011;66744;49.716;17.158;2023-07-29T05:39:16;10.30;;;5.07;;
77586;SDS011;66744;49.716;17.158;2023-07-29T05:42:18;6.28;;;4.47;;
77586;SDS011;66744;49.716;17.158;2023-07-29T05:45:19;6.07;;;3.92;;
77586;SDS011;66744;49.716;17.158;2023-07-29T05:48:22;8.80;;;4.32;;
77586;SDS011;66744;49.716;17.158;2023-07-29T05:51:26;7.88;;;4.60;;
77586;SDS011;66744;49.716;17.158;2023-07-29T05:54:27;6.35;;;4.88;;
77586;SDS011;66744;49.716;17.158;2023-07-29T05:57:28;6.20;;;4.07;;
77586;SDS011;66744;49.716;17.158;2023-07-29T06:00:35;7.18;;;4.50;;
77586;SDS011;66744;49.716;17.158;2023-07-29T06:03:37;5.65;;;3.60;;
77586;SDS011;66744;49.716;17.158;2023-07-29T06:06:38;5.93;;;3.70;;
77586;SDS011;66744;49.716;17.158;2023-07-29T06:09:42;4.57;;;3.85;;
77586;SDS011;66744;49.716;17.158;2023-07-29T06:12:47;6.00;;;3.58;;
77586;SDS011;66744;49.716;17.158;2023-07-29T06:15:48;4.10;;;3.20;;
77586;SDS011;66744;49.716;17.158;2023-07-29T06:18:50;5.35;;;3.33;;
77586;SDS011;66744;49.716;17.158;2023-07-29T06:21:55;5.03;;;3.35;;
77586;SDS011;66744;49.716;17.158;2023-07-29T06:25:06;4.55;;;2.97;;
77586;SDS011;66744;49.716;17.158;2023-07-29T06:28:10;5.47;;;2.85;;
77586;SDS011;66744;49.716;17.158;2023-07-29T06:31:12;4.43;;;2.88;;
77586;SDS011;66744;49.716;17.158;2023-07-29T06:34:13;4.55;;;3.25;;
77586;SDS011;66744;49.716;17.158;2023-07-29T06:37:15;5.28;;;3.35;;
77586;SDS011;66744;49.716;17.158;2023-07-29T06:40:16;4.63;;;3.53;;
77586;SDS011;66744;49.716;17.158;2023-07-29T06:43:18;6.15;;;3.83;;
77586;SDS011;66744;49.716;17.158;2023-07-29T06:46:29;4.10;;;3.10;;
77586;SDS011;66744;49.716;17.158;2023-07-29T06:49:40;4.68;;;3.50;;
77586;SDS011;66744;49.716;17.158;2023-07-29T06:52:42;10.20;;;3.78;;
77586;SDS011;66744;49.716;17.158;2023-07-29T06:55:52;4.18;;;3.28;;
77586;SDS011;66744;49.716;17.158;2023-07-29T06:59:16;4.75;;;3.30;;
77586;SDS011;66744;49.716;17.158;2023-07-29T07:02:22;4.85;;;3.30;;
77586;SDS011;66744;49.716;17.158;2023-07-29T07:05:24;5.50;;;2.83;;
77586;SDS011;66744;49.716;17.158;2023-07-29T07:11:32;3.60;;;2.80;;
77586;SDS011;66744;49.716;17.158;2023-07-29T07:14:42;5.60;;;3.00;;
77586;SDS011;66744;49.716;17.158;2023-07-29T07:17:46;4.18;;;2.95;;
77586;SDS011;66744;49.716;17.158;2023-07-29T07:20:48;4.25;;;3.03;;
77586;SDS011;66744;49.716;17.158;2023-07-29T07:23:58;4.60;;;3.55;;
77586;SDS011;66744;49.716;17.158;2023-07-29T07:27:02;5.15;;;2.70;;
77586;SDS011;66744;49.716;17.158;2023-07-29T07:30:31;5.53;;;3.13;;
77586;SDS011;66744;49.716;17.158;2023-07-29T07:33:32;5.05;;;3.00;;
77586;SDS011;66744;49.716;17.158;2023-07-29T07:36:34;4.85;;;2.75;;
77586;SDS011;66744;49.716;17.158;2023-07-29T07:39:38;6.05;;;3.55;;
77586;SDS011;66744;49.716;17.158;2023-07-29T07:42:39;5.47;;;3.58;;
77586;SDS011;66744;49.716;17.158;2023-07-29T07:45:43;3.28;;;2.80;;
77586;SDS011;66744;49.716;17.158;2023-07-29T07:48:44;4.25;;;3.20;;
77586;SDS011;66744;49.716;17.158;2023-07-29T07:51:45;7.00;;;3.50;;
77586;SDS011;66744;49.716;17.158;2023-07-29T07:58:12;4.82;;;3.42;;
77586;SDS011;66744;49.716;17.158;2023-07-29T08:01:14;6.80;;;3.42;;
77586;SDS011;66744;49.716;17.158;2023-07-29T08:04:15;3.45;;;2.58;;
77586;SDS011;66744;49.716;17.158;2023-07-29T08:07:16;3.42;;;2.55;;
77586;SDS011;66744;49.716;17.158;2023-07-29T08:10:18;2.40;;;1.98;;
77586;SDS011;66744;49.716;17.158;2023-07-29T08:13:20;3.40;;;2.15;;
77586;SDS011;66744;49.716;17.158;2023-07-29T08:16:24;2.60;;;2.00;;
77586;SDS011;66744;49.716;17.158;2023-07-29T08:19:28;2.58;;;1.95;;
77586;SDS011;66744;49.716;17.158;2023-07-29T08:22:29;2.33;;;1.65;;
77586;SDS011;66744;49.716;17.158;2023-07-29T08:25:31;2.28;;;1.90;;
77586;SDS011;66744;49.716;17.158;2023-07-29T08:28:45;2.13;;;1.90;;
77586;SDS011;66744;49.716;17.158;2023-07-29T08:31:51;3.20;;;2.22;;
77586;SDS011;66744;49.716;17.158;2023-07-29T08:34:52;2.53;;;2.30;;
77586;SDS011;66744;49.716;17.158;2023-07-29T08:38:00;3.22;;;2.25;;
77586;SDS011;66744;49.716;17.158;2023-07-29T08:44:23;2.60;;;1.80;;
77586;SDS011;66744;49.716;17.158;2023-07-29T08:47:54;2.40;;;1.83;;
77586;SDS011;66744;49.716;17.158;2023-07-29T08:50:59;2.80;;;2.25;;
77586;SDS011;66744;49.716;17.158;2023-07-29T08:54:04;3.45;;;2.08;;
77586;SDS011;66744;49.716;17.158;2023-07-29T08:57:06;2.40;;;1.90;;
77586;SDS011;66744;49.716;17.158;2023-07-29T09:00:11;3.60;;;1.92;;
77586;SDS011;66744;49.716;17.158;2023-07-29T09:03:16;2.13;;;1.67;;
77586;SDS011;66744;49.716;17.158;2023-07-29T09:06:18;3.20;;;1.67;;
77586;SDS011;66744;49.716;17.158;2023-07-29T09:09:24;2.13;;;1.67;;
77586;SDS011;66744;49.716;17.158;2023-07-29T09:12:31;1.80;;;1.67;;
77586;SDS011;66744;49.716;17.158;2023-07-29T09:15:34;3.17;;;1.50;;
77586;SDS011;66744;49.716;17.158;2023-07-29T09:18:47;2.28;;;1.17;;
77586;SDS011;66744;49.716;17.158;2023-07-29T09:21:53;2.20;;;1.67;;
77586;SDS011;66744;49.716;17.158;2023-07-29T09:24:56;3.45;;;1.63;;
77586;SDS011;66744;49.716;17.158;2023-07-29T09:28:08;1.65;;;1.50;;
77586;SDS011;66744;49.716;17.158;2023-07-29T09:32:17;5.10;;;1.40;;
77586;SDS011;66744;49.716;17.158;2023-07-29T09:35:36;1.80;;;1.70;;
77586;SDS011;66744;49.716;17.158;2023-07-29T09:38:57;2.15;;;1.70;;
77586;SDS011;66744;49.716;17.158;2023-07-29T09:42:11;3.65;;;2.03;;
77586;SDS011;66744;49.716;17.158;2023-07-29T09:45:21;2.53;;;1.60;;
77586;SDS011;66744;49.716;17.158;2023-07-29T09:48:37;1.92;;;1.52;;
77586;SDS011;66744;49.716;17.158;2023-07-29T09:51:49;2.05;;;1.50;;
77586;SDS011;66744;49.716;17.158;2023-07-29T09:55:02;2.58;;;1.83;;
77586;SDS011;66744;49.716;17.158;2023-07-29T09:59:07;3.45;;;1.50;;
77586;SDS011;66744;49.716;17.158;2023-07-29T10:02:15;1.80;;;1.33;;
77586;SDS011;66744;49.716;17.158;2023-07-29T10:05:17;2.78;;;1.63;;
77586;SDS011;66744;49.716;17.158;2023-07-29T10:08:28;2.67;;;1.73;;
77586;SDS011;66744;49.716;17.158;2023-07-29T10:11:57;1.90;;;1.52;;
77586;SDS011;66744;49.716;17.158;2023-07-29T10:15:05;1.88;;;1.50;;
77586;SDS011;66744;49.716;17.158;2023-07-29T10:18:13;2.08;;;1.40;;
77586;SDS011;66744;49.716;17.158;2023-07-29T10:21:23;3.72;;;1.83;;
77586;SDS011;66744;49.716;17.158;2023-07-29T10:24:41;1.70;;;1.60;;
77586;SDS011;66744;49.716;17.158;2023-07-29T10:28:04;2.20;;;1.95;;
77586;SDS011;66744;49.716;17.158;2023-07-29T10:31:07;1.95;;;1.65;;
77586;SDS011;66744;49.716;17.158;2023-07-29T10:34:18;2.55;;;1.60;;
77586;SDS011;66744;49.716;17.158;2023-07-29T10:37:22;1.83;;;1.70;;
77586;SDS011;66744;49.716;17.158;2023-07-29T10:40:28;2.03;;;1.67;;
77586;SDS011;66744;49.716;17.158;2023-07-29T10:43:50;2.30;;;1.70;;
77586;SDS011;66744;49.716;17.158;2023-07-29T10:46:52;1.92;;;1.63;;
77586;SDS011;66744;49.716;17.158;2023-07-29T10:49:54;1.50;;;1.35;;
77586;SDS011;66744;49.716;17.158;2023-07-29T10:53:00;2.95;;;1.50;;
77586;SDS011;66744;49.716;17.158;2023-07-29T10:56:08;1.30;;;1.20;;
77586;SDS011;66744;49.716;17.158;2023-07-29T11:02:19;2.88;;;1.58;;
77586;SDS011;66744;49.716;17.158;2023-07-29T11:05:21;2.55;;;1.90;;
77586;SDS011;66744;49.716;17.158;2023-07-29T11:08:25;3.83;;;2.13;;
77586;SDS011;66744;49.716;17.158;2023-07-29T11:11:28;2.63;;;1.75;;
77586;SDS011;66744;49.716;17.158;2023-07-29T11:14:32;1.48;;;1.38;;
77586;SDS011;66744;49.716;17.158;2023-07-29T11:17:34;2.10;;;1.33;;
77586;SDS011;66744;49.716;17.158;2023-07-29T11:20:37;2.03;;;1.50;;
77586;SDS011;66744;49.716;17.158;2023-07-29T11:23:38;1.30;;;1.10;;
77586;SDS011;66744;49.716;17.158;2023-07-29T11:26:48;1.60;;;1.30;;
77586;SDS011;66744;49.716;17.158;2023-07-29T11:29:57;1.92;;;1.33;;
77586;SDS011;66744;49.716;17.158;2023-07-29T11:33:10;1.60;;;1.25;;
77586;SDS011;66744;49.716;17.158;2023-07-29T11:36:18;2.00;;;1.25;;
77586;SDS011;66744;49.716;17.158;2023-07-29T11:39:26;1.60;;;1.10;;
77586;SDS011;66744;49.716;17.158;2023-07-29T11:42:27;1.23;;;1.10;;
77586;SDS011;66744;49.716;17.158;2023-07-29T11:45:38;1.70;;;1.30;;
77586;SDS011;66744;49.716;17.158;2023-07-29T11:48:45;1.58;;;1.48;;
77586;SDS011;66744;49.716;17.158;2023-07-29T11:51:46;1.35;;;1.02;;
77586;SDS011;66744;49.716;17.158;2023-07-29T11:54:55;1.15;;;1.00;;
77586;SDS011;66744;49.716;17.158;2023-07-29T11:58:05;1.80;;;1.13;;
77586;SDS011;66744;49.716;17.158;2023-07-29T12:01:08;1.25;;;1.15;;
77586;SDS011;66744;49.716;17.158;2023-07-29T12:04:14;1.50;;;1.27;;
77586;SDS011;66744;49.716;17.158;2023-07-29T12:07:17;2.20;;;1.33;;
77586;SDS011;66744;49.716;17.158;2023-07-29T12:10:25;1.38;;;0.80;;
77586;SDS011;66744;49.716;17.158;2023-07-29T12:13:32;1.27;;;0.98;;
77586;SDS011;66744;49.716;17.158;2023-07-29T12:16:40;0.98;;;0.75;;
77586;SDS011;66744;49.716;17.158;2023-07-29T12:19:54;2.08;;;1.40;;
77586;SDS011;66744;49.716;17.158;2023-07-29T12:22:58;1.95;;;1.20;;
77586;SDS011;66744;49.716;17.158;2023-07-29T12:26:06;1.20;;;0.85;;
77586;SDS011;66744;49.716;17.158;2023-07-29T12:29:15;2.17;;;1.15;;
77586;SDS011;66744;49.716;17.158;2023-07-29T12:32:31;1.25;;;0.82;;
77586;SDS011;66744;49.716;17.158;2023-07-29T12:35:52;1.40;;;1.00;;
77586;SDS011;66744;49.716;17.158;2023-07-29T12:39:06;1.17;;;0.90;;
77586;SDS011;66744;49.716;17.158;2023-07-29T12:42:32;1.88;;;1.00;;
77586;SDS011;66744;49.716;17.158;2023-07-29T12:45:38;2.42;;;0.80;;
77586;SDS011;66744;49.716;17.158;2023-07-29T12:49:02;1.10;;;0.75;;
77586;SDS011;66744;49.716;17.158;2023-07-29T12:52:06;1.25;;;0.82;;
77586;SDS011;66744;49.716;17.158;2023-07-29T12:55:11;1.23;;;0.90;;
77586;SDS011;66744;49.716;17.158;2023-07-29T12:58:15;0.95;;;0.60;;
77586;SDS011;66744;49.716;17.158;2023-07-29T13:01:41;1.02;;;0.70;;
77586;SDS011;66744;49.716;17.158;2023-07-29T13:04:42;1.65;;;1.20;;
77586;SDS011;66744;49.716;17.158;2023-07-29T13:08:01;0.95;;;0.75;;
77586;SDS011;66744;49.716;17.158;2023-07-29T13:11:39;0.70;;;0.32;;
77586;SDS011;66744;49.716;17.158;2023-07-29T13:14:55;1.15;;;0.60;;
77586;SDS011;66744;49.716;17.158;2023-07-29T13:18:11;1.63;;;0.70;;
77586;SDS011;66744;49.716;17.158;2023-07-29T13:21:55;1.17;;;0.70;;
77586;SDS011;66744;49.716;17.158;2023-07-29T13:25:44;1.48;;;0.75;;
77586;SDS011;66744;49.716;17.158;2023-07-29T13:28:55;1.00;;;0.80;;
77586;SDS011;66744;49.716;17.158;2023-07-29T13:31:57;1.33;;;0.77;;
77586;SDS011;66744;49.716;17.158;2023-07-29T13:34:59;1.20;;;0.80;;
77586;SDS011;66744;49.716;17.158;2023-07-29T13:38:01;2.15;;;0.80;;
77586;SDS011;66744;49.716;17.158;2023-07-29T13:41:05;1.25;;;0.80;;
77586;SDS011;66744;49.716;17.158;2023-07-29T13:44:11;1.27;;;0.70;;
77586;SDS011;66744;49.716;17.158;2023-07-29T13:47:13;2.75;;;0.90;;
77586;SDS011;66744;49.716;17.158;2023-07-29T13:50:17;0.80;;;0.63;;
77586;SDS011;66744;49.716;17.158;2023-07-29T13:53:19;1.23;;;0.70;;
77586;SDS011;66744;49.716;17.158;2023-07-29T13:56:23;0.90;;;0.63;;
77586;SDS011;66744;49.716;17.158;2023-07-29T13:59:24;1.20;;;0.88;;
77586;SDS011;66744;49.716;17.158;2023-07-29T14:02:26;1.80;;;0.80;;
77586;SDS011;66744;49.716;17.158;2023-07-29T14:05:28;2.30;;;0.93;;
77586;SDS011;66744;49.716;17.158;2023-07-29T14:08:29;2.63;;;0.95;;
77586;SDS011;66744;49.716;17.158;2023-07-29T14:11:31;1.50;;;0.90;;
77586;SDS011;66744;49.716;17.158;2023-07-29T14:14:32;12.23;;;1.63;;
77586;SDS011;66744;49.716;17.158;2023-07-29T14:17:36;18.13;;;1.85;;
77586;SDS011;66744;49.716;17.158;2023-07-29T14:20:44;3.97;;;1.63;;
77586;SDS011;66744;49.716;17.158;2023-07-29T14:23:52;2.33;;;1.00;;
77586;SDS011;66744;49.716;17.158;2023-07-29T14:26:57;2.53;;;1.08;;
77586;SDS011;66744;49.716;17.158;2023-07-29T14:30:01;5.57;;;1.20;;
77586;SDS011;66744;49.716;17.158;2023-07-29T14:33:12;3.63;;;0.90;;
77586;SDS011;66744;49.716;17.158;2023-07-29T14:36:16;1.92;;;1.00;;
77586;SDS011;66744;49.716;17.158;2023-07-29T14:39:20;3.97;;;1.30;;
77586;SDS011;66744;49.716;17.158;2023-07-29T14:42:26;4.72;;;1.20;;
77586;SDS011;66744;49.716;17.158;2023-07-29T14:45:28;5.72;;;1.48;;
77586;SDS011;66744;49.716;17.158;2023-07-29T14:48:32;3.05;;;0.90;;
77586;SDS011;66744;49.716;17.158;2023-07-29T14:51:36;2.15;;;0.90;;
77586;SDS011;66744;49.716;17.158;2023-07-29T14:54:59;3.65;;;0.70;;
77586;SDS011;66744;49.716;17.158;2023-07-29T14:58:01;4.00;;;1.10;;
77586;SDS011;66744;49.716;17.158;2023-07-29T15:01:23;3.13;;;1.13;;
77586;SDS011;66744;49.716;17.158;2023-07-29T15:04:25;2.65;;;0.98;;
77586;SDS011;66744;49.716;17.158;2023-07-29T15:07:27;4.00;;;1.17;;
77586;SDS011;66744;49.716;17.158;2023-07-29T15:10:34;2.28;;;1.20;;
77586;SDS011;66744;49.716;17.158;2023-07-29T15:13:38;2.95;;;1.17;;
77586;SDS011;66744;49.716;17.158;2023-07-29T15:16:42;3.58;;;0.80;;
77586;SDS011;66744;49.716;17.158;2023-07-29T15:19:46;2.22;;;0.90;;
77586;SDS011;66744;49.716;17.158;2023-07-29T15:22:54;3.67;;;1.10;;
77586;SDS011;66744;49.716;17.158;2023-07-29T15:25:59;2.33;;;1.00;;
77586;SDS011;66744;49.716;17.158;2023-07-29T15:29:04;5.05;;;1.10;;
77586;SDS011;66744;49.716;17.158;2023-07-29T15:32:07;1.42;;;0.98;;
77586;SDS011;66744;49.716;17.158;2023-07-29T15:35:17;4.53;;;0.90;;
77586;SDS011;66744;49.716;17.158;2023-07-29T15:38:22;2.35;;;0.70;;
77586;SDS011;66744;49.716;17.158;2023-07-29T15:41:24;1.58;;;1.17;;
77586;SDS011;66744;49.716;17.158;2023-07-29T15:44:25;3.17;;;1.00;;
77586;SDS011;66744;49.716;17.158;2023-07-29T15:47:29;3.65;;;1.75;;
77586;SDS011;66744;49.716;17.158;2023-07-29T15:50:32;1.20;;;0.70;;
77586;SDS011;66744;49.716;17.158;2023-07-29T15:53:33;2.17;;;1.17;;
77586;SDS011;66744;49.716;17.158;2023-07-29T15:56:36;2.38;;;1.45;;
77586;SDS011;66744;49.716;17.158;2023-07-29T15:59:37;10.77;;;6.22;;
77586;SDS011;66744;49.716;17.158;2023-07-29T16:02:38;6.00;;;2.70;;
77586;SDS011;66744;49.716;17.158;2023-07-29T16:05:47;3.33;;;1.15;;
77586;SDS011;66744;49.716;17.158;2023-07-29T16:08:51;1.67;;;0.95;;
77586;SDS011;66744;49.716;17.158;2023-07-29T16:11:53;2.70;;;0.80;;
77586;SDS011;66744;49.716;17.158;2023-07-29T16:14:55;3.28;;;0.98;;
77586;SDS011;66744;49.716;17.158;2023-07-29T16:18:09;4.90;;;1.05;;
77586;SDS011;66744;49.716;17.158;2023-07-29T16:21:11;1.42;;;0.60;;
77586;SDS011;66744;49.716;17.158;2023-07-29T16:24:18;1.10;;;0.50;;
77586;SDS011;66744;49.716;17.158;2023-07-29T16:27:21;1.35;;;0.65;;
77586;SDS011;66744;49.716;17.158;2023-07-29T16:30:25;2.03;;;0.70;;
77586;SDS011;66744;49.716;17.158;2023-07-29T16:33:27;1.70;;;0.73;;
77586;SDS011;66744;49.716;17.158;2023-07-29T16:36:31;1.20;;;0.50;;
77586;SDS011;66744;49.716;17.158;2023-07-29T16:39:44;2.60;;;0.55;;
77586;SDS011;66744;49.716;17.158;2023-07-29T16:42:46;1.52;;;0.60;;
77586;SDS011;66744;49.716;17.158;2023-07-29T16:45:52;1.20;;;0.70;;
77586;SDS011;66744;49.716;17.158;2023-07-29T16:48:56;1.95;;;0.70;;
77586;SDS011;66744;49.716;17.158;2023-07-29T16:51:58;2.40;;;0.50;;
77586;SDS011;66744;49.716;17.158;2023-07-29T16:55:02;3.88;;;0.63;;
77586;SDS011;66744;49.716;17.158;2023-07-29T16:58:05;2.83;;;1.00;;
77586;SDS011;66744;49.716;17.158;2023-07-29T17:01:08;2.42;;;0.65;;
77586;SDS011;66744;49.716;17.158;2023-07-29T17:04:10;1.25;;;0.80;;
77586;SDS011;66744;49.716;17.158;2023-07-29T17:07:11;3.42;;;0.90;;
77586;SDS011;66744;49.716;17.158;2023-07-29T17:10:20;2.00;;;0.65;;
77586;SDS011;66744;49.716;17.158;2023-07-29T17:13:32;1.88;;;0.70;;
77586;SDS011;66744;49.716;17.158;2023-07-29T17:16:41;1.80;;;0.82;;
77586;SDS011;66744;49.716;17.158;2023-07-29T17:20:00;1.95;;;0.73;;
77586;SDS011;66744;49.716;17.158;2023-07-29T17:23:16;2.45;;;0.70;;
77586;SDS011;66744;49.716;17.158;2023-07-29T17:26:22;7.22;;;0.80;;
77586;SDS011;66744;49.716;17.158;2023-07-29T17:29:24;2.95;;;0.55;;
77586;SDS011;66744;49.716;17.158;2023-07-29T17:32:28;2.60;;;0.95;;
77586;SDS011;66744;49.716;17.158;2023-07-29T17:35:30;3.05;;;0.88;;
77586;SDS011;66744;49.716;17.158;2023-07-29T17:38:39;13.95;;;9.27;;
77586;SDS011;66744;49.716;17.158;2023-07-29T17:41:42;4.60;;;3.40;;
77586;SDS011;66744;49.716;17.158;2023-07-29T17:44:57;4.18;;;1.48;;
77586;SDS011;66744;49.716;17.158;2023-07-29T17:52:18;3.42;;;0.95;;
77586;SDS011;66744;49.716;17.158;2023-07-29T17:55:22;1.45;;;0.85;;
77586;SDS011;66744;49.716;17.158;2023-07-29T17:58:34;3.58;;;0.98;;
77586;SDS011;66744;49.716;17.158;2023-07-29T18:01:42;3.55;;;0.70;;
77586;SDS011;66744;49.716;17.158;2023-07-29T18:04:51;5.93;;;0.88;;
77586;SDS011;66744;49.716;17.158;2023-07-29T18:08:35;2.38;;;0.73;;
77586;SDS011;66744;49.716;17.158;2023-07-29T18:11:37;3.25;;;0.95;;
77586;SDS011;66744;49.716;17.158;2023-07-29T18:14:41;2.47;;;0.80;;
77586;SDS011;66744;49.716;17.158;2023-07-29T18:17:43;2.47;;;0.80;;
77586;SDS011;66744;49.716;17.158;2023-07-29T18:20:49;2.42;;;0.77;;
77586;SDS011;66744;49.716;17.158;2023-07-29T18:23:53;2.63;;;0.75;;
77586;SDS011;66744;49.716;17.158;2023-07-29T18:27:04;1.75;;;0.60;;
77586;SDS011;66744;49.716;17.158;2023-07-29T18:30:08;2.38;;;0.82;;
77586;SDS011;66744;49.716;17.158;2023-07-29T18:33:10;2.03;;;0.73;;
77586;SDS011;66744;49.716;17.158;2023-07-29T18:36:11;1.10;;;0.82;;
77586;SDS011;66744;49.716;17.158;2023-07-29T18:39:13;2.78;;;0.80;;
77586;SDS011;66744;49.716;17.158;2023-07-29T18:42:14;1.50;;;0.70;;